Weather at Guest Ranch Airport [CLOSED]

Public forecast

Using degrees Fahrenheit for public forecast. Weather courtesy of forecast.io.

Closest aviation weather report (METAR) to Guest Ranch Airport

Closest report is Stinson Municipal Airport, 4.8 nm (8.9 km) N.

2024/06/15 02:53 (retrieved 1 hour ago)

KSSF 150253Z AUTO 09008KT 10SM CLR 32/19 A2987 RMK AO2 SLP101 T03170189 53014

Closest aviation forecast (TAF) to Guest Ranch Airport

Forecast is more than 6 hours old.

Closest forecast is Randolph Air Force Base, 19.1 nm (35.4 km) NNE.

2024/06/14 16:59 (retrieved 11 hours ago)

TAF KRND 141546Z 1416/1522 11008KT 9999 SCT030 SCT050 QNH2984INS BECMG 1510/1511 VRB06KT 9999 BKN012 OVC020 QNH2989INS BECMG 1515/1516 15009KT 9999 FEW040 QNH2990INS TX37/1422Z TN25/1512Z LAST NO AMDS AFT 1500 NEXT 1710